createdAt,value
2023-01-17T12:54:25.482Z,8.40
2023-01-17T12:55:25.459Z,8.76
2023-01-17T12:56:25.424Z,9.02
2023-01-17T12:57:25.405Z,9.32
2023-01-17T12:58:25.383Z,9.46
2023-01-17T12:59:25.370Z,9.40
2023-01-17T13:00:25.377Z,9.31
2023-01-17T13:01:25.393Z,9.02
2023-01-17T13:02:25.285Z,8.98
2023-01-17T13:03:25.280Z,8.68
2023-01-17T13:04:25.223Z,8.63
2023-01-17T13:05:25.207Z,8.53
2023-01-17T13:06:25.177Z,8.45
2023-01-17T13:07:25.179Z,8.37
2023-01-17T13:08:25.143Z,8.28
2023-01-17T13:09:25.135Z,8.79
2023-01-17T13:10:25.110Z,9.13
2023-01-17T13:11:25.070Z,8.59
2023-01-17T13:12:25.057Z,8.61
2023-01-17T13:13:25.042Z,8.92
2023-01-17T13:14:25.022Z,9.20
2023-01-17T13:15:25.005Z,9.36
2023-01-17T13:16:24.977Z,9.71
2023-01-17T13:17:24.963Z,9.58
2023-01-17T13:18:24.937Z,9.48
2023-01-17T13:19:24.909Z,9.18
2023-01-17T13:21:39.015Z,8.45
2023-01-17T13:22:38.969Z,8.50
2023-01-17T13:23:38.946Z,8.77
2023-01-17T13:24:38.921Z,8.71
2023-01-17T13:25:38.899Z,8.58
2023-01-17T13:26:38.898Z,8.47
2023-01-17T13:27:38.859Z,8.36
2023-01-17T13:28:38.844Z,8.41
2023-01-17T13:29:38.805Z,8.29
2023-01-17T13:30:38.789Z,8.43
2023-01-17T13:31:38.816Z,8.47
2023-01-17T13:32:38.751Z,8.41
2023-01-17T13:33:38.765Z,8.58
2023-01-17T13:34:38.708Z,8.62
2023-01-17T13:35:38.686Z,8.73
2023-01-17T13:36:38.662Z,8.59
2023-01-17T13:37:38.657Z,8.91
2023-01-17T13:38:38.635Z,8.92
2023-01-17T13:39:38.594Z,8.80
